createdAt,value
2023-04-16T00:02:49.826Z,1.4
2023-04-16T00:12:51.836Z,1.4
2023-04-16T00:22:54.243Z,2.5
2023-04-16T00:32:55.969Z,3.5
2023-04-16T00:42:57.927Z,2.2
2023-04-16T00:52:59.971Z,3.3
2023-04-16T01:03:02.195Z,1.6
2023-04-16T01:13:03.863Z,2.3
2023-04-16T01:23:05.868Z,3.1
2023-04-16T01:33:07.731Z,3.6
2023-04-16T01:43:09.608Z,4.4
2023-04-16T01:53:11.573Z,4.1
2023-04-16T02:03:13.453Z,4.3
2023-04-16T02:13:15.191Z,3.7
2023-04-16T02:23:16.960Z,4.2
2023-04-16T02:33:18.724Z,4.6
2023-04-16T02:43:20.518Z,2.9
2023-04-16T02:53:22.324Z,2.9
2023-04-16T03:03:24.069Z,3.9
2023-04-16T03:13:25.931Z,2.5
2023-04-16T03:23:27.708Z,2.3
2023-04-16T03:33:29.534Z,2.4
2023-04-16T03:43:31.322Z,1.5
2023-04-16T03:53:33.105Z,3
2023-04-16T04:03:35.023Z,3.9
2023-04-16T04:13:36.665Z,2.3
2023-04-16T04:23:38.465Z,2.1
2023-04-16T04:33:40.172Z,1.7
2023-04-16T04:43:41.959Z,1.7
2023-04-16T04:53:43.656Z,1.9
2023-04-16T05:03:45.450Z,2.2
2023-04-16T05:13:47.064Z,2.1
2023-04-16T05:23:48.700Z,2.4
2023-04-16T05:33:50.392Z,3.4
2023-04-16T05:43:52.040Z,4.4
2023-04-16T05:53:53.759Z,3
2023-04-16T06:03:55.514Z,4.5
2023-04-16T06:13:57.115Z,3.4
2023-04-16T06:23:58.898Z,4.2
2023-04-16T06:34:00.518Z,3.7
2023-04-16T06:44:02.222Z,3.9
2023-04-16T06:54:03.890Z,4.2
2023-04-16T07:04:05.782Z,4.6
2023-04-16T07:14:07.220Z,6.6
2023-04-16T07:24:08.855Z,5.2
2023-04-16T07:34:10.503Z,4.9
2023-04-16T07:44:12.170Z,5.7
2023-04-16T07:54:13.912Z,3.9
2023-04-16T08:04:15.543Z,5.4
2023-04-16T08:14:17.078Z,4.8
2023-04-16T08:24:18.672Z,3.9
2023-04-16T08:34:20.278Z,4.1
2023-04-16T08:44:21.896Z,3.9
2023-04-16T08:54:23.483Z,4.3
2023-04-16T09:04:25.232Z,4.2
2023-04-16T09:14:26.770Z,5.3
2023-04-16T09:24:28.356Z,6.7
2023-04-16T09:34:29.894Z,4.9
2023-04-16T09:44:31.457Z,5.9
2023-04-16T09:54:32.993Z,6.1
2023-04-16T10:04:34.571Z,6.5
2023-04-16T10:14:36.114Z,5.6
2023-04-16T10:24:37.722Z,5.8
2023-04-16T10:34:39.381Z,5.9
2023-04-16T10:44:42.778Z,5.9
2023-04-16T10:54:42.286Z,6
2023-04-16T11:04:44.023Z,6.3
2023-04-16T11:14:45.414Z,5.2
2023-04-16T11:24:46.955Z,6.4
2023-04-16T11:34:48.449Z,7.1
2023-04-16T11:44:50.040Z,5.5
2023-04-16T11:54:51.522Z,9.6
2023-04-16T12:04:53.123Z,6.7
2023-04-16T12:14:54.762Z,6.4
2023-04-16T12:24:56.390Z,5.2
2023-04-16T12:34:58.098Z,5.7
2023-04-16T12:44:59.754Z,5.2
2023-04-16T12:55:01.502Z,4.9
2023-04-16T13:05:03.387Z,5.5
2023-04-16T13:15:05.270Z,5
2023-04-16T13:25:07.200Z,5
2023-04-16T13:35:09.242Z,4.3
2023-04-16T13:45:11.239Z,8.9
2023-04-16T13:55:13.381Z,4.4
2023-04-16T14:05:15.425Z,4.6
2023-04-16T14:15:17.424Z,7.3
2023-04-16T14:25:19.551Z,5.5
2023-04-16T14:35:21.692Z,3.8
2023-04-16T14:45:23.862Z,6.1
2023-04-16T14:55:26.058Z,4.1
2023-04-16T15:05:28.346Z,5.8
2023-04-16T15:15:30.615Z,3.1
2023-04-16T15:25:32.955Z,2.4
2023-04-16T15:35:35.236Z,3.1
2023-04-16T15:45:37.615Z,4.9
2023-04-16T15:55:40.030Z,2.2
2023-04-16T16:05:42.487Z,1.9
2023-04-16T16:15:44.955Z,3.2
2023-04-16T16:25:47.451Z,1.7
2023-04-16T16:35:50.126Z,2.2
2023-04-16T16:45:52.610Z,2
2023-04-16T16:55:55.256Z,2.3
2023-04-16T17:05:57.878Z,2.5
2023-04-16T17:16:00.483Z,1.7
2023-04-16T17:26:02.958Z,3.1
2023-04-16T17:36:05.614Z,3
2023-04-16T17:46:08.225Z,2.6
2023-04-16T17:56:10.715Z,1.9
2023-04-16T18:06:13.306Z,2.2
2023-04-16T18:16:15.917Z,1.4
2023-04-16T18:26:20.844Z,1.8
2023-04-16T18:36:21.005Z,1.6
2023-04-16T18:46:23.271Z,1.5
2023-04-16T18:56:25.716Z,2.8
2023-04-16T19:06:28.271Z,2.4
2023-04-16T19:16:30.823Z,1.8
2023-04-16T19:26:33.311Z,1.8
2023-04-16T19:36:35.890Z,1.4
2023-04-16T19:46:38.536Z,1.5
2023-04-16T19:56:41.068Z,1.5
2023-04-16T20:06:43.609Z,1.7
2023-04-16T20:16:46.234Z,1.7
2023-04-16T20:26:48.937Z,3
2023-04-16T20:36:51.449Z,1.4
2023-04-16T20:46:54.079Z,4.6
2023-04-16T20:56:56.659Z,1.5
2023-04-16T21:06:59.220Z,2.6
2023-04-16T21:17:01.775Z,1.4
2023-04-16T21:27:04.287Z,1.9
2023-04-16T21:37:06.892Z,1.6
2023-04-16T21:47:09.381Z,2.1
2023-04-16T21:57:11.900Z,1.9
2023-04-16T22:07:14.350Z,2.1
2023-04-16T22:17:16.809Z,1.7
2023-04-16T22:27:19.220Z,2.3
2023-04-16T22:37:21.677Z,3.9
2023-04-16T22:47:24.006Z,4.4
2023-04-16T22:57:26.252Z,3.5
2023-04-16T23:07:28.557Z,5.6
2023-04-16T23:17:30.833Z,5.4
2023-04-16T23:27:33.012Z,5.1
2023-04-16T23:37:35.269Z,3.4
2023-04-16T23:47:37.476Z,4.3
2023-04-16T23:57:39.718Z,6.3
